Wetterdaten: aktuell Donnerstag, 29.02.2024 04:00
Datum Zeit Temp. A. Feuchte A. Luftdruck Regen Wind Taupunkt Windchill Windben
29.02.2024 04:00 0,0 C 93 % 1021,2 hPa 0,0 l/m 0,0 km/h (0 Bft) -1,0 C 0,0 C 0,0 km/h (0 Bft)
29.02.2024 03:50 -0,1 C 93 % 1021,5 hPa 0,0 l/m 0,0 km/h (0 Bft) -1,1 C -0,1 C 0,0 km/h (0 Bft)
29.02.2024 03:40 -0,2 C 93 % 1021,6 hPa 0,0 l/m 0,0 km/h (0 Bft) -1,2 C -0,2 C 0,0 km/h (0 Bft)
29.02.2024 03:30 -0,3 C 93 % 1021,7 hPa 0,0 l/m 0,0 km/h (0 Bft) -1,3 C -0,3 C 0,0 km/h (0 Bft)
29.02.2024 03:20 -0,4 C 93 % 1021,7 hPa 0,0 l/m 0,0 km/h (0 Bft) -1,4 C -0,4 C 0,0 km/h (0 Bft)
29.02.2024 03:10 -0,6 C 93 % 1021,8 hPa 0,0 l/m 0,0 km/h (0 Bft) -1,6 C -0,6 C 0,0 km/h (0 Bft)
29.02.2024 03:00 -0,8 C 93 % 1021,8 hPa 0,0 l/m 0,0 km/h (0 Bft) -1,8 C -0,8 C 0,0 km/h (0 Bft)
29.02.2024 02:50 -0,9 C 92 % 1021,9 hPa 0,0 l/m 0,0 km/h (0 Bft) -2,0 C -0,9 C 0,0 km/h (0 Bft)
29.02.2024 02:40 -1,1 C 92 % 1022,0 hPa 0,0 l/m 0,2 km/h (0 Bft) -2,2 C -1,1 C 3,2 km/h (1 Bft)
29.02.2024 02:30 -1,1 C 92 % 1022,1 hPa 0,0 l/m 0,6 km/h (0 Bft) -2,2 C -1,1 C 3,2 km/h (1 Bft)
29.02.2024 02:20 -1,1 C 92 % 1022,1 hPa 0,0 l/m 0,1 km/h (0 Bft) -2,2 C -1,1 C 1,6 km/h (1 Bft)
29.02.2024 02:10 -0,9 C 92 % 1022,1 hPa 0,0 l/m 0,7 km/h (0 Bft) -2,0 C -0,9 C 3,2 km/h (1 Bft)
29.02.2024 02:00 -0,9 C 92 % 1022,2 hPa 0,0 l/m 1,9 km/h (1 Bft) -2,0 C -0,9 C 6,4 km/h (2 Bft)
29.02.2024 01:50 -1,0 C 91 % 1022,3 hPa 0,0 l/m 0,0 km/h (0 Bft) -2,3 C -1,0 C 0,0 km/h (0 Bft)
29.02.2024 01:40 -0,9 C 91 % 1022,4 hPa 0,0 l/m 0,0 km/h (0 Bft) -2,2 C -0,9 C 0,0 km/h (0 Bft)
29.02.2024 01:30 -0,7 C 91 % 1022,5 hPa 0,0 l/m 0,6 km/h (0 Bft) -2,0 C -0,7 C 3,2 km/h (1 Bft)
29.02.2024 01:20 -0,6 C 91 % 1022,6 hPa 0,0 l/m 2,1 km/h (1 Bft) -1,9 C -0,6 C 6,4 km/h (2 Bft)
29.02.2024 01:10 -0,4 C 92 % 1022,6 hPa 0,0 l/m 3,7 km/h (1 Bft) -1,5 C -0,4 C 6,4 km/h (2 Bft)
29.02.2024 01:00 -0,7 C 91 % 1022,8 hPa 0,0 l/m 1,6 km/h (1 Bft) -2,0 C -0,7 C 6,4 km/h (2 Bft)
29.02.2024 00:50 -0,8 C 90 % 1022,9 hPa 0,0 l/m 0,0 km/h (0 Bft) -2,2 C -0,8 C 0,0 km/h (0 Bft)
29.02.2024 00:40 -0,8 C 88 % 1023,0 hPa 0,0 l/m 0,0 km/h (0 Bft) -2,5 C -0,8 C 0,0 km/h (0 Bft)
_ Min-Zeit 02:30 00:00 04:00 - 00:00 00:30 02:20 00:00
Minimum _ -1,2 C 86 % 1021,2 hPa - 0,0 km/h (0 Bft) -2,6 C -1,1 C 0,0 km/h (0 Bft)
_ Max-Zeit 04:00 03:00 00:00 00:00 01:10 04:00 04:00 01:00
Maximum _ 0,1 C 93 % 1023,1 hPa 0,0 l/m 3,7 km/h
S (1 Bft)
-1,0 C 0,0 C 6,4 km/h
S (2 Bft)
Durchschnitt _ -0,6 C 91 % 1022,3 hPa #0,0 l/m 0,5 km/h (0 Bft) -1,9 C -0,6 C 1,6 km/h (1 Bft)